• Join FlightAware (Why Join?)
  • Login
  • US Flag 
 
04:48AM EST


 

Airport Tracker/Info


-or-


 

Live Flight TrackerFlight Track Log ✈ SKW2988 ✈ 28-Apr-2013 ✈ KBUR - KPHX

Flight Track Log - Related Links

Times and Time Zones

All times are in EDT time to prevent confusion due to time zone crossing. See the SKW2988 flight status page for this flight to view local times or setup timezone preferences in your user account.

Time Position Orientation Groundspeed Altitude Reporting Facility
EDT Latitude Longitude Course Direction KTS MPH feet Rate Location/Type
10:36PM 34.1756 -118.3528 211° Southwest 162 186 2,000  Level Los Angeles Center
10:36PM 34.1333 -118.3833 211° Southwest 219 252 3,200 1,500 Climbing Southern California TRACON
10:39PM 34.1908 -118.5214 297° West 252 290 6,700 1,800 Climbing Los Angeles Center
10:40PM 34.2614 -118.5008 14° North 261 300 9,300 2,400 Climbing Los Angeles Center
10:41PM 34.3353 -118.4817 12° North 266 306 11,700 1,920 Climbing Los Angeles Center
10:42PM 34.4050 -118.4431 25° Northeast 282 325 13,300 1,380 Climbing Los Angeles Center
10:43PM 34.4572 -118.3553 54° Northeast 319 367 14,600 1,260 Climbing Los Angeles Center
10:44PM 34.5139 -118.2631 53° Northeast 339 390 16,000 1,320 Climbing Los Angeles Center
10:45PM 34.5711 -118.1678 54° Northeast 349 402 17,400 1,440 Climbing Los Angeles Center
10:46PM 34.6311 -118.0556 57° Northeast 354 407 19,000 1,500 Climbing Los Angeles Center
10:47PM 34.6456 -117.9356 82° East 359 413 20,500 1,260 Climbing Los Angeles Center
10:48PM 34.6583 -117.8131 83° East 367 422 21,600 960 Climbing Los Angeles Center
10:49PM 34.6714 -117.6872 83° East 376 433 22,600 1,080 Climbing Los Angeles Center
10:50PM 34.6875 -117.5319 83° East 388 447 23,900 1,020 Climbing Los Angeles Center
10:51PM 34.7011 -117.4003 83° East 395 455 24,800 900 Climbing Los Angeles Center
10:52PM 34.7153 -117.2667 83° East 401 461 25,800 780 Climbing Los Angeles Center
10:53PM 34.7289 -117.1325 83° East 403 464 26,500 660 Climbing Los Angeles Center
10:54PM 34.7583 -117.0011 75° East 417 480 27,200 660 Climbing Los Angeles Center
10:55PM 34.8308 -116.8956 50° Northeast 410 472 27,900 780 Climbing Los Angeles Center
10:56PM 34.8939 -116.7464 63° Northeast 415 478 28,900 480 Climbing Los Angeles Center
10:57PM 34.9439 -116.6186 64° Northeast 418 481 29,000  Climbing Los Angeles Center
10:58PM 34.9817 -116.4806 71° East 431 496 29,000  Level Los Angeles Center
10:59PM 35.0175 -116.3150 75° East 423 487 29,000  Level Los Angeles Center
11:01PM 35.0486 -116.1769 75° East 422 486 29,000  Level Los Angeles Center
11:02PM 35.0792 -116.0383 75° East 423 487 29,000  Level Los Angeles Center
11:03PM 35.1092 -115.9011 75° East 419 482 29,000  Level Los Angeles Center
11:04PM 35.1436 -115.7367 76° East 417 480 29,000  Level Los Angeles Center
11:05PM 35.1722 -115.5981 76° East 420 483 29,000  Level Los Angeles Center
11:06PM 35.1994 -115.4664 76° East 415 478 29,000  Level Los Angeles Center
11:07PM 35.2269 -115.3283 76° East 417 480 29,000  Level Los Angeles Center
11:08PM 35.2578 -115.1914 75° East 419 482 29,000  Level Los Angeles Center
11:09PM 35.2911 -115.0258 76° East 419 482 29,000  Level Los Angeles Center
11:10PM 35.2967 -114.8861 87° East 422 486 29,000  Level Los Angeles Center
11:11PM 35.2883 -114.7394 94° East 429 494 29,000  Level Los Angeles Center
11:12PM 35.2758 -114.5928 96° East 433 498 29,000  Level Los Angeles Center
11:13PM 35.2628 -114.4500 96° East 427 491 29,000  Level Los Angeles Center
11:14PM 35.2514 -114.3050 95° East 427 491 29,000  Level Los Angeles Center
11:15PM 35.2389 -114.1606 96° East 428 493 29,000  Level Los Angeles Center
11:16PM 35.2258 -113.9894 95° East 425 489 29,000  Level Los Angeles Center
11:17PM 35.2147 -113.8517 96° East 425 489 29,000  Level Los Angeles Center
11:18PM 35.2028 -113.7108 96° East 423 487 29,000  Level Los Angeles Center
11:19PM 35.1908 -113.5692 96° East 422 486 29,000  Level Los Angeles Center
11:20PM 35.1781 -113.4286 96° East 420 483 29,000  Level Los Angeles Center
11:21PM 35.1372 -113.2644 107° East 440 506 29,000  Level Los Angeles Center
11:22PM 35.0831 -113.1669 124° Southeast 440 506 29,000  Level Albuquerque Center
11:23PM 35.0169 -113.0442 123° Southeast 441 507 29,000  Level Albuquerque Center
11:24PM 34.9503 -112.9244 124° Southeast 437 503 29,000  Level Albuquerque Center
11:25PM 34.8844 -112.8064 124° Southeast 430 495 29,000 -480 Level Albuquerque Center
11:26PM 34.8172 -112.6878 125° Southeast 429 494 28,100 -1,380 Descending Albuquerque Center
11:27PM 34.7383 -112.5461 124° Southeast 427 491 26,200 -1,800 Descending Albuquerque Center
11:28PM 34.6672 -112.4428 130° Southeast 409 471 24,500 -1,800 Descending Albuquerque Center
11:29PM 34.5803 -112.3614 142° Southeast 399 459 22,600 -1,860 Descending Albuquerque Center
11:30PM 34.5033 -112.2881 142° Southeast 385 443 20,800 -1,860 Descending Albuquerque Center
11:31PM 34.4169 -112.2211 147° Southeast 375 432 18,900 -2,100 Descending Albuquerque Center
11:32PM 34.2997 -112.1933 169° South 362 417 16,600 -1,740 Descending Albuquerque Center
11:33PM 34.2069 -112.1689 168° South 348 400 15,400 -1,200 Descending Albuquerque Center
11:34PM 34.1172 -112.1447 167° South 334 384 14,200 -1,140 Descending Albuquerque Center
11:35PM 34.0300 -112.1222 168° South 325 374 13,100 -1,020 Descending Albuquerque Center
11:36PM 33.9467 -112.1003 168° South 312 359 12,200 -960 Descending Albuquerque Center
11:37PM 33.8622 -112.0789 168° South 312 359 11,200 -1,080 Descending Albuquerque Center
11:38PM 33.7611 -112.0539 168° South 312 359 10,000 -900 Descending Albuquerque Center
11:39PM 33.6792 -112.0386 171° South 301 346 9,400 -540 Descending Albuquerque Center
11:40PM 33.6053 -112.0258 172° South 274 315 9,000 -600 Descending Albuquerque Center
11:41PM 33.5408 -111.9894 155° Southeast 264 304 8,200 -1,020 Descending Albuquerque Center
11:42PM 33.5283 -111.9061 100° East 260 299 7,000 -1,140 Descending Albuquerque Center
11:43PM 33.5081 -111.8378 110° East 239 275 6,000 -1,440 Descending Albuquerque Center
11:44PM 33.4475 -111.8325 176° South 217 250 4,100 -1,620 Descending Albuquerque Center
11:45PM 33.4389 -111.8889 260° West 184 212 2,800 -1,080 Descending Albuquerque Center
11:46PM 33.4411 -111.9364 273° West 148 170 2,000 -780 Descending Albuquerque Center
11:47PM 33.4400 -111.9894 269° West 142 163 1,300 -720 Descending Albuquerque Center